sensor_id;sensor_type;location;lat;lon;timestamp;temperature;humidity
37518;DHT22;23366;52.498;13.446;2022-09-09T00:02:16;15.10;99.90
37518;DHT22;23366;52.498;13.446;2022-09-09T00:15:22;15.00;99.90
37518;DHT22;23366;52.498;13.446;2022-09-09T00:18:27;15.00;99.90
37518;DHT22;23366;52.498;13.446;2022-09-09T00:21:14;15.00;99.90
37518;DHT22;23366;52.498;13.446;2022-09-09T00:23:50;15.00;99.90
37518;DHT22;23366;52.498;13.446;2022-09-09T00:26:38;14.90;99.90
37518;DHT22;23366;52.498;13.446;2022-09-09T00:31:37;14.90;99.90
37518;DHT22;23366;52.498;13.446;2022-09-09T00:34:20;15.00;99.90
37518;DHT22;23366;52.498;13.446;2022-09-09T00:36:49;14.90;99.90
37518;DHT22;23366;52.498;13.446;2022-09-09T00:39:32;14.90;99.90
37518;DHT22;23366;52.498;13.446;2022-09-09T00:42:26;14.90;99.90
37518;DHT22;23366;52.498;13.446;2022-09-09T00:45:29;15.00;99.90
37518;DHT22;23366;52.498;13.446;2022-09-09T00:48:04;14.90;99.90
37518;DHT22;23366;52.498;13.446;2022-09-09T00:51:36;14.90;99.90
37518;DHT22;23366;52.498;13.446;2022-09-09T00:54:00;14.90;99.90
37518;DHT22;23366;52.498;13.446;2022-09-09T00:56:37;14.90;99.90
37518;DHT22;23366;52.498;13.446;2022-09-09T00:59:32;15.00;99.90
37518;DHT22;23366;52.498;13.446;2022-09-09T01:02:11;14.90;99.90
37518;DHT22;23366;52.498;13.446;2022-09-09T01:04:42;14.90;99.90
37518;DHT22;23366;52.498;13.446;2022-09-09T01:07:18;14.90;99.90
37518;DHT22;23366;52.498;13.446;2022-09-09T01:09:51;14.90;99.90
37518;DHT22;23366;52.498;13.446;2022-09-09T01:12:27;14.90;99.90
37518;DHT22;23366;52.498;13.446;2022-09-09T01:15:07;14.80;99.90
37518;DHT22;23366;52.498;13.446;2022-09-09T01:20:26;14.80;99.90
37518;DHT22;23366;52.498;13.446;2022-09-09T01:28:35;14.70;99.90
37518;DHT22;23366;52.498;13.446;2022-09-09T01:31:06;14.70;99.90
37518;DHT22;23366;52.498;13.446;2022-09-09T01:33:33;14.70;99.90
37518;DHT22;23366;52.498;13.446;2022-09-09T01:36:09;14.70;99.90
37518;DHT22;23366;52.498;13.446;2022-09-09T01:38:35;14.70;99.90
37518;DHT22;23366;52.498;13.446;2022-09-09T01:41:02;14.60;99.90
37518;DHT22;23366;52.498;13.446;2022-09-09T01:43:28;14.60;99.90
37518;DHT22;23366;52.498;13.446;2022-09-09T01:45:56;14.60;99.90
37518;DHT22;23366;52.498;13.446;2022-09-09T01:48:25;14.60;99.90
37518;DHT22;23366;52.498;13.446;2022-09-09T01:50:50;14.60;99.90
37518;DHT22;23366;52.498;13.446;2022-09-09T01:53:17;14.50;99.90
37518;DHT22;23366;52.498;13.446;2022-09-09T02:04:38;14.50;99.90
37518;DHT22;23366;52.498;13.446;2022-09-09T02:07:14;14.50;99.90
37518;DHT22;23366;52.498;13.446;2022-09-09T02:09:42;14.40;99.90
37518;DHT22;23366;52.498;13.446;2022-09-09T02:12:13;14.40;99.90
37518;DHT22;23366;52.498;13.446;2022-09-09T02:14:42;14.40;99.90
37518;DHT22;23366;52.498;13.446;2022-09-09T02:17:11;14.40;99.90
37518;DHT22;23366;52.498;13.446;2022-09-09T02:19:44;14.30;99.90
37518;DHT22;23366;52.498;13.446;2022-09-09T02:22:11;14.30;99.90
37518;DHT22;23366;52.498;13.446;2022-09-09T02:24:39;14.30;99.90
37518;DHT22;23366;52.498;13.446;2022-09-09T02:27:07;14.30;99.90
37518;DHT22;23366;52.498;13.446;2022-09-09T02:29:40;14.30;99.90
37518;DHT22;23366;52.498;13.446;2022-09-09T02:32:10;14.30;99.90
37518;DHT22;23366;52.498;13.446;2022-09-09T02:34:40;14.40;99.90
37518;DHT22;23366;52.498;13.446;2022-09-09T02:37:09;14.40;99.90
37518;DHT22;23366;52.498;13.446;2022-09-09T02:39:35;14.30;99.90
37518;DHT22;23366;52.498;13.446;2022-09-09T02:42:00;14.30;99.90
37518;DHT22;23366;52.498;13.446;2022-09-09T02:44:26;14.30;99.90
37518;DHT22;23366;52.498;13.446;2022-09-09T02:47:23;14.20;99.90
37518;DHT22;23366;52.498;13.446;2022-09-09T02:55:35;14.30;99.90
37518;DHT22;23366;52.498;13.446;2022-09-09T02:58:05;14.30;99.90
37518;DHT22;23366;52.498;13.446;2022-09-09T03:00:32;14.30;99.90
37518;DHT22;23366;52.498;13.446;2022-09-09T03:02:58;14.30;99.90
37518;DHT22;23366;52.498;13.446;2022-09-09T03:05:24;14.20;99.90
37518;DHT22;23366;52.498;13.446;2022-09-09T03:07:50;14.30;99.90
37518;DHT22;23366;52.498;13.446;2022-09-09T03:10:16;14.20;99.90
37518;DHT22;23366;52.498;13.446;2022-09-09T03:12:43;14.20;99.90
37518;DHT22;23366;52.498;13.446;2022-09-09T03:15:09;14.20;99.90
37518;DHT22;23366;52.498;13.446;2022-09-09T03:17:35;14.10;99.90
37518;DHT22;23366;52.498;13.446;2022-09-09T03:20:02;14.10;99.90
37518;DHT22;23366;52.498;13.446;2022-09-09T03:22:28;14.10;99.90
37518;DHT22;23366;52.498;13.446;2022-09-09T03:24:54;14.10;99.90
37518;DHT22;23366;52.498;13.446;2022-09-09T03:27:19;14.10;99.90
37518;DHT22;23366;52.498;13.446;2022-09-09T03:29:46;14.10;99.90
37518;DHT22;23366;52.498;13.446;2022-09-09T03:32:12;14.00;99.90
37518;DHT22;23366;52.498;13.446;2022-09-09T03:34:38;14.00;99.90
37518;DHT22;23366;52.498;13.446;2022-09-09T03:37:06;14.00;99.90
37518;DHT22;23366;52.498;13.446;2022-09-09T03:39:31;14.00;99.90
37518;DHT22;23366;52.498;13.446;2022-09-09T03:41:57;14.00;99.90
37518;DHT22;23366;52.498;13.446;2022-09-09T03:44:23;14.00;99.90
37518;DHT22;23366;52.498;13.446;2022-09-09T03:46:48;14.00;99.90
37518;DHT22;23366;52.498;13.446;2022-09-09T03:49:20;14.00;99.90
37518;DHT22;23366;52.498;13.446;2022-09-09T03:51:47;14.00;99.90
37518;DHT22;23366;52.498;13.446;2022-09-09T03:54:13;14.00;99.90
37518;DHT22;23366;52.498;13.446;2022-09-09T03:56:40;14.00;99.90
37518;DHT22;23366;52.498;13.446;2022-09-09T03:59:07;14.00;99.90
37518;DHT22;23366;52.498;13.446;2022-09-09T04:01:36;14.00;99.90
37518;DHT22;23366;52.498;13.446;2022-09-09T04:04:02;13.90;99.90
37518;DHT22;23366;52.498;13.446;2022-09-09T04:06:29;14.00;99.90
37518;DHT22;23366;52.498;13.446;2022-09-09T04:08:55;14.00;99.90
37518;DHT22;23366;52.498;13.446;2022-09-09T04:11:21;14.00;99.90
37518;DHT22;23366;52.498;13.446;2022-09-09T04:13:47;14.00;99.90
37518;DHT22;23366;52.498;13.446;2022-09-09T04:16:14;14.00;99.90
37518;DHT22;23366;52.498;13.446;2022-09-09T04:18:39;14.00;99.90
37518;DHT22;23366;52.498;13.446;2022-09-09T04:21:06;13.90;99.90
37518;DHT22;23366;52.498;13.446;2022-09-09T04:23:33;14.00;99.90
37518;DHT22;23366;52.498;13.446;2022-09-09T04:26:00;13.90;99.90
37518;DHT22;23366;52.498;13.446;2022-09-09T04:28:28;13.90;99.90
37518;DHT22;23366;52.498;13.446;2022-09-09T04:30:55;13.90;99.90
37518;DHT22;23366;52.498;13.446;2022-09-09T04:33:24;13.90;99.90
37518;DHT22;23366;52.498;13.446;2022-09-09T04:35:52;13.90;99.90
37518;DHT22;23366;52.498;13.446;2022-09-09T04:38:19;14.00;99.90
37518;DHT22;23366;52.498;13.446;2022-09-09T04:40:48;13.90;99.90
37518;DHT22;23366;52.498;13.446;2022-09-09T04:43:14;14.00;99.90
37518;DHT22;23366;52.498;13.446;2022-09-09T04:45:41;14.00;99.90
37518;DHT22;23366;52.498;13.446;2022-09-09T04:48:07;14.00;99.90
37518;DHT22;23366;52.498;13.446;2022-09-09T04:50:33;14.00;99.90
37518;DHT22;23366;52.498;13.446;2022-09-09T04:53:03;14.00;99.90
37518;DHT22;23366;52.498;13.446;2022-09-09T04:55:30;14.10;99.90
37518;DHT22;23366;52.498;13.446;2022-09-09T04:57:56;14.10;99.90
37518;DHT22;23366;52.498;13.446;2022-09-09T05:00:23;14.10;99.90
37518;DHT22;23366;52.498;13.446;2022-09-09T05:02:48;14.10;99.90
37518;DHT22;23366;52.498;13.446;2022-09-09T05:05:21;14.20;99.90
37518;DHT22;23366;52.498;13.446;2022-09-09T05:08:14;14.40;99.90
37518;DHT22;23366;52.498;13.446;2022-09-09T05:10:40;14.50;99.90
37518;DHT22;23366;52.498;13.446;2022-09-09T05:13:07;14.60;99.90
37518;DHT22;23366;52.498;13.446;2022-09-09T05:15:33;14.80;99.90
37518;DHT22;23366;52.498;13.446;2022-09-09T05:18:01;15.00;99.90
37518;DHT22;23366;52.498;13.446;2022-09-09T05:20:28;15.70;99.90
37518;DHT22;23366;52.498;13.446;2022-09-09T05:22:56;17.00;99.90
37518;DHT22;23366;52.498;13.446;2022-09-09T05:25:23;18.10;99.90
37518;DHT22;23366;52.498;13.446;2022-09-09T05:27:51;19.00;99.90
37518;DHT22;23366;52.498;13.446;2022-09-09T05:30:24;19.80;99.90
37518;DHT22;23366;52.498;13.446;2022-09-09T05:32:51;20.30;99.90
37518;DHT22;23366;52.498;13.446;2022-09-09T05:35:17;20.90;99.90
37518;DHT22;23366;52.498;13.446;2022-09-09T05:37:44;21.50;99.90
37518;DHT22;23366;52.498;13.446;2022-09-09T05:40:11;21.90;99.90
37518;DHT22;23366;52.498;13.446;2022-09-09T05:42:37;22.10;99.90
37518;DHT22;23366;52.498;13.446;2022-09-09T05:45:04;22.40;99.90
37518;DHT22;23366;52.498;13.446;2022-09-09T05:47:30;22.60;99.90
37518;DHT22;23366;52.498;13.446;2022-09-09T05:49:55;23.00;99.90
37518;DHT22;23366;52.498;13.446;2022-09-09T05:52:21;23.30;99.90
37518;DHT22;23366;52.498;13.446;2022-09-09T05:54:48;23.60;99.90
37518;DHT22;23366;52.498;13.446;2022-09-09T05:57:14;23.80;99.90
37518;DHT22;23366;52.498;13.446;2022-09-09T05:59:40;24.00;99.90
37518;DHT22;23366;52.498;13.446;2022-09-09T06:02:05;24.10;99.90
37518;DHT22;23366;52.498;13.446;2022-09-09T06:04:31;24.00;99.90
37518;DHT22;23366;52.498;13.446;2022-09-09T06:06:56;23.70;99.90
37518;DHT22;23366;52.498;13.446;2022-09-09T06:09:22;23.60;99.90
37518;DHT22;23366;52.498;13.446;2022-09-09T06:11:48;23.60;99.90
37518;DHT22;23366;52.498;13.446;2022-09-09T06:14:13;23.40;99.90
37518;DHT22;23366;52.498;13.446;2022-09-09T06:16:40;23.30;99.90
37518;DHT22;23366;52.498;13.446;2022-09-09T06:19:07;23.00;99.90
37518;DHT22;23366;52.498;13.446;2022-09-09T06:21:34;23.10;99.90
37518;DHT22;23366;52.498;13.446;2022-09-09T06:24:04;23.20;99.90
37518;DHT22;23366;52.498;13.446;2022-09-09T06:26:34;23.40;99.90
37518;DHT22;23366;52.498;13.446;2022-09-09T06:29:00;23.50;99.90
37518;DHT22;23366;52.498;13.446;2022-09-09T06:31:28;23.60;99.90
37518;DHT22;23366;52.498;13.446;2022-09-09T06:33:58;23.90;99.90
37518;DHT22;23366;52.498;13.446;2022-09-09T06:36:32;24.50;99.90
37518;DHT22;23366;52.498;13.446;2022-09-09T06:38:58;24.90;99.90
37518;DHT22;23366;52.498;13.446;2022-09-09T06:41:26;25.40;99.90
37518;DHT22;23366;52.498;13.446;2022-09-09T06:43:52;25.70;99.90
37518;DHT22;23366;52.498;13.446;2022-09-09T06:46:23;25.30;99.70
37518;DHT22;23366;52.498;13.446;2022-09-09T06:48:53;24.60;99.90
37518;DHT22;23366;52.498;13.446;2022-09-09T06:51:27;24.10;99.90
37518;DHT22;23366;52.498;13.446;2022-09-09T06:53:55;24.50;99.90
37518;DHT22;23366;52.498;13.446;2022-09-09T06:56:26;24.50;99.90
37518;DHT22;23366;52.498;13.446;2022-09-09T06:58:54;24.60;99.90
37518;DHT22;23366;52.498;13.446;2022-09-09T07:01:22;25.30;99.90
37518;DHT22;23366;52.498;13.446;2022-09-09T07:03:50;26.20;98.50
37518;DHT22;23366;52.498;13.446;2022-09-09T07:06:19;27.00;97.00
37518;DHT22;23366;52.498;13.446;2022-09-09T07:08:58;27.80;95.10
37518;DHT22;23366;52.498;13.446;2022-09-09T07:11:29;28.40;93.80
37518;DHT22;23366;52.498;13.446;2022-09-09T07:13:57;28.80;92.00
37518;DHT22;23366;52.498;13.446;2022-09-09T07:16:23;29.20;91.10
37518;DHT22;23366;52.498;13.446;2022-09-09T07:18:50;29.60;90.10
37518;DHT22;23366;52.498;13.446;2022-09-09T07:21:16;30.20;88.60
37518;DHT22;23366;52.498;13.446;2022-09-09T07:23:42;30.80;87.20
37518;DHT22;23366;52.498;13.446;2022-09-09T07:26:18;31.20;82.70
37518;DHT22;23366;52.498;13.446;2022-09-09T07:28:47;31.30;81.80
37518;DHT22;23366;52.498;13.446;2022-09-09T07:31:15;30.80;79.40
37518;DHT22;23366;52.498;13.446;2022-09-09T07:33:42;30.40;80.70
37518;DHT22;23366;52.498;13.446;2022-09-09T07:36:15;30.30;81.60
37518;DHT22;23366;52.498;13.446;2022-09-09T07:38:42;30.50;81.20
37518;DHT22;23366;52.498;13.446;2022-09-09T07:41:14;30.70;80.60
37518;DHT22;23366;52.498;13.446;2022-09-09T07:43:42;31.20;78.70
37518;DHT22;23366;52.498;13.446;2022-09-09T07:46:09;31.80;77.00
37518;DHT22;23366;52.498;13.446;2022-09-09T07:48:35;32.40;76.70
37518;DHT22;23366;52.498;13.446;2022-09-09T07:51:06;32.80;74.30
37518;DHT22;23366;52.498;13.446;2022-09-09T07:53:32;33.10;73.30
37518;DHT22;23366;52.498;13.446;2022-09-09T07:56:10;33.50;73.10
37518;DHT22;23366;52.498;13.446;2022-09-09T07:58:39;33.90;70.50
37518;DHT22;23366;52.498;13.446;2022-09-09T08:01:11;34.00;69.10
37518;DHT22;23366;52.498;13.446;2022-09-09T08:03:37;34.00;68.90
37518;DHT22;23366;52.498;13.446;2022-09-09T08:06:05;34.00;69.20
37518;DHT22;23366;52.498;13.446;2022-09-09T08:08:33;34.10;68.00
37518;DHT22;23366;52.498;13.446;2022-09-09T08:11:11;33.60;67.40
37518;DHT22;23366;52.498;13.446;2022-09-09T08:13:38;33.10;68.40
37518;DHT22;23366;52.498;13.446;2022-09-09T08:16:08;32.80;68.10
37518;DHT22;23366;52.498;13.446;2022-09-09T08:18:34;32.40;70.00
37518;DHT22;23366;52.498;13.446;2022-09-09T08:21:11;32.30;70.10
37518;DHT22;23366;52.498;13.446;2022-09-09T08:23:40;31.40;69.30
37518;DHT22;23366;52.498;13.446;2022-09-09T08:26:13;30.10;73.00
37518;DHT22;23366;52.498;13.446;2022-09-09T08:28:46;29.20;75.10
37518;DHT22;23366;52.498;13.446;2022-09-09T08:31:13;28.10;78.10
37518;DHT22;23366;52.498;13.446;2022-09-09T08:33:39;27.40;79.70
37518;DHT22;23366;52.498;13.446;2022-09-09T08:36:06;26.70;81.70
37518;DHT22;23366;52.498;13.446;2022-09-09T08:38:32;26.10;83.70
37518;DHT22;23366;52.498;13.446;2022-09-09T08:41:19;25.80;84.90
37518;DHT22;23366;52.498;13.446;2022-09-09T08:43:49;25.50;86.70
37518;DHT22;23366;52.498;13.446;2022-09-09T08:49:50;24.50;89.10
37518;DHT22;23366;52.498;13.446;2022-09-09T08:52:23;24.10;90.70
37518;DHT22;23366;52.498;13.446;2022-09-09T08:54:51;23.70;91.60
37518;DHT22;23366;52.498;13.446;2022-09-09T08:57:23;23.50;92.20
37518;DHT22;23366;52.498;13.446;2022-09-09T08:59:55;23.20;92.80
37518;DHT22;23366;52.498;13.446;2022-09-09T09:08:25;22.90;94.60
37518;DHT22;23366;52.498;13.446;2022-09-09T09:10:55;23.00;94.80
37518;DHT22;23366;52.498;13.446;2022-09-09T09:13:25;23.20;95.00
37518;DHT22;23366;52.498;13.446;2022-09-09T09:16:11;23.50;95.10
37518;DHT22;23366;52.498;13.446;2022-09-09T09:18:39;24.00;94.70
37518;DHT22;23366;52.498;13.446;2022-09-09T09:21:12;24.40;94.00
37518;DHT22;23366;52.498;13.446;2022-09-09T09:23:56;24.70;93.00
37518;DHT22;23366;52.498;13.446;2022-09-09T09:26:25;24.80;92.40
37518;DHT22;23366;52.498;13.446;2022-09-09T09:28:54;24.90;92.70
37518;DHT22;23366;52.498;13.446;2022-09-09T09:31:21;25.00;92.50
37518;DHT22;23366;52.498;13.446;2022-09-09T09:33:49;25.10;92.60
37518;DHT22;23366;52.498;13.446;2022-09-09T09:36:16;25.30;92.30
37518;DHT22;23366;52.498;13.446;2022-09-09T09:38:56;25.00;92.00
37518;DHT22;23366;52.498;13.446;2022-09-09T09:41:30;24.70;92.70
37518;DHT22;23366;52.498;13.446;2022-09-09T09:43:56;24.60;93.60
37518;DHT22;23366;52.498;13.446;2022-09-09T09:46:24;24.60;93.80
37518;DHT22;23366;52.498;13.446;2022-09-09T09:49:09;24.50;93.80
37518;DHT22;23366;52.498;13.446;2022-09-09T09:51:35;24.20;93.40
37518;DHT22;23366;52.498;13.446;2022-09-09T09:54:27;23.90;93.60
37518;DHT22;23366;52.498;13.446;2022-09-09T09:56:54;23.70;94.90
37518;DHT22;23366;52.498;13.446;2022-09-09T10:01:53;23.60;95.40
37518;DHT22;23366;52.498;13.446;2022-09-09T10:04:21;23.70;96.10
37518;DHT22;23366;52.498;13.446;2022-09-09T10:06:49;23.80;95.50
37518;DHT22;23366;52.498;13.446;2022-09-09T10:09:28;23.90;95.10
37518;DHT22;23366;52.498;13.446;2022-09-09T10:18:02;23.30;96.00
37518;DHT22;23366;52.498;13.446;2022-09-09T10:29:12;23.60;96.10
37518;DHT22;23366;52.498;13.446;2022-09-09T10:34:55;23.80;95.40
37518;DHT22;23366;52.498;13.446;2022-09-09T10:40:28;23.80;95.50
37518;DHT22;23366;52.498;13.446;2022-09-09T10:46:07;23.80;95.80
37518;DHT22;23366;52.498;13.446;2022-09-09T10:49:02;23.70;95.30
37518;DHT22;23366;52.498;13.446;2022-09-09T10:51:43;23.60;95.80
37518;DHT22;23366;52.498;13.446;2022-09-09T10:54:21;23.60;96.00
37518;DHT22;23366;52.498;13.446;2022-09-09T10:56:58;23.60;95.80
37518;DHT22;23366;52.498;13.446;2022-09-09T10:59:33;23.70;96.20
37518;DHT22;23366;52.498;13.446;2022-09-09T11:04:55;23.90;95.80
37518;DHT22;23366;52.498;13.446;2022-09-09T11:07:37;24.00;95.20
37518;DHT22;23366;52.498;13.446;2022-09-09T11:10:13;24.00;95.40
37518;DHT22;23366;52.498;13.446;2022-09-09T11:12:43;24.00;95.00
37518;DHT22;23366;52.498;13.446;2022-09-09T11:15:24;23.80;95.40
37518;DHT22;23366;52.498;13.446;2022-09-09T11:17:56;23.60;95.60
37518;DHT22;23366;52.498;13.446;2022-09-09T11:20:24;23.60;95.90
37518;DHT22;23366;52.498;13.446;2022-09-09T11:23:04;23.60;95.70
37518;DHT22;23366;52.498;13.446;2022-09-09T11:25:39;23.60;95.40
37518;DHT22;23366;52.498;13.446;2022-09-09T11:28:31;23.70;96.40
37518;DHT22;23366;52.498;13.446;2022-09-09T11:31:11;23.80;97.10
37518;DHT22;23366;52.498;13.446;2022-09-09T11:34:17;23.90;96.00
37518;DHT22;23366;52.498;13.446;2022-09-09T11:37:05;23.90;95.90
37518;DHT22;23366;52.498;13.446;2022-09-09T11:39:53;24.00;94.80
37518;DHT22;23366;52.498;13.446;2022-09-09T11:42:24;23.90;94.50
37518;DHT22;23366;52.498;13.446;2022-09-09T11:44:50;23.90;94.30
37518;DHT22;23366;52.498;13.446;2022-09-09T11:47:27;23.90;94.40
37518;DHT22;23366;52.498;13.446;2022-09-09T11:52:47;23.40;95.20
37518;DHT22;23366;52.498;13.446;2022-09-09T11:55:27;23.20;94.90
37518;DHT22;23366;52.498;13.446;2022-09-09T11:58:18;23.20;95.50
37518;DHT22;23366;52.498;13.446;2022-09-09T12:00:48;23.30;95.40
37518;DHT22;23366;52.498;13.446;2022-09-09T12:03:43;23.30;95.70
37518;DHT22;23366;52.498;13.446;2022-09-09T12:06:29;23.30;95.90
37518;DHT22;23366;52.498;13.446;2022-09-09T12:09:11;23.10;96.10
37518;DHT22;23366;52.498;13.446;2022-09-09T12:11:40;23.10;96.70
37518;DHT22;23366;52.498;13.446;2022-09-09T12:14:20;23.20;96.30
37518;DHT22;23366;52.498;13.446;2022-09-09T12:16:46;23.40;95.90
37518;DHT22;23366;52.498;13.446;2022-09-09T12:19:22;23.40;96.50
37518;DHT22;23366;52.498;13.446;2022-09-09T12:21:53;23.40;96.10
37518;DHT22;23366;52.498;13.446;2022-09-09T12:24:37;23.20;95.50
37518;DHT22;23366;52.498;13.446;2022-09-09T12:27:23;23.00;95.80
37518;DHT22;23366;52.498;13.446;2022-09-09T12:30:02;23.00;96.30
37518;DHT22;23366;52.498;13.446;2022-09-09T12:32:28;22.90;96.30
37518;DHT22;23366;52.498;13.446;2022-09-09T12:34:58;22.90;96.70
37518;DHT22;23366;52.498;13.446;2022-09-09T12:37:35;22.90;96.70
37518;DHT22;23366;52.498;13.446;2022-09-09T12:40:03;22.80;96.40
37518;DHT22;23366;52.498;13.446;2022-09-09T12:42:30;22.80;96.60
37518;DHT22;23366;52.498;13.446;2022-09-09T12:45:00;22.80;96.70
37518;DHT22;23366;52.498;13.446;2022-09-09T12:47:42;22.80;96.10
37518;DHT22;23366;52.498;13.446;2022-09-09T12:50:22;22.90;95.90
37518;DHT22;23366;52.498;13.446;2022-09-09T12:52:52;22.90;95.70
37518;DHT22;23366;52.498;13.446;2022-09-09T12:55:27;23.00;95.80
37518;DHT22;23366;52.498;13.446;2022-09-09T12:57:54;23.00;95.70
37518;DHT22;23366;52.498;13.446;2022-09-09T13:00:24;23.00;95.10
37518;DHT22;23366;52.498;13.446;2022-09-09T13:03:00;23.10;94.90
37518;DHT22;23366;52.498;13.446;2022-09-09T13:05:37;23.20;95.60
37518;DHT22;23366;52.498;13.446;2022-09-09T13:08:06;23.30;95.50
37518;DHT22;23366;52.498;13.446;2022-09-09T13:10:35;23.40;95.30
37518;DHT22;23366;52.498;13.446;2022-09-09T13:13:05;23.40;94.30
37518;DHT22;23366;52.498;13.446;2022-09-09T13:15:53;23.50;94.60
37518;DHT22;23366;52.498;13.446;2022-09-09T13:18:55;23.50;93.70
37518;DHT22;23366;52.498;13.446;2022-09-09T13:21:43;23.60;93.80
37518;DHT22;23366;52.498;13.446;2022-09-09T13:24:31;23.50;93.60
37518;DHT22;23366;52.498;13.446;2022-09-09T13:26:59;23.60;93.60
37518;DHT22;23366;52.498;13.446;2022-09-09T13:29:28;23.60;93.50
37518;DHT22;23366;52.498;13.446;2022-09-09T13:31:54;23.60;93.80
37518;DHT22;23366;52.498;13.446;2022-09-09T13:34:30;23.60;93.60
37518;DHT22;23366;52.498;13.446;2022-09-09T13:37:22;23.70;93.00
37518;DHT22;23366;52.498;13.446;2022-09-09T13:39:52;23.80;92.60
37518;DHT22;23366;52.498;13.446;2022-09-09T13:42:26;23.80;93.00
37518;DHT22;23366;52.498;13.446;2022-09-09T13:44:52;23.80;92.20
37518;DHT22;23366;52.498;13.446;2022-09-09T13:47:20;23.80;92.60
37518;DHT22;23366;52.498;13.446;2022-09-09T13:49:46;23.80;92.80
37518;DHT22;23366;52.498;13.446;2022-09-09T13:52:14;23.80;92.40
37518;DHT22;23366;52.498;13.446;2022-09-09T13:54:41;23.70;92.60
37518;DHT22;23366;52.498;13.446;2022-09-09T13:57:22;23.70;92.60
37518;DHT22;23366;52.498;13.446;2022-09-09T13:59:48;23.80;92.40
37518;DHT22;23366;52.498;13.446;2022-09-09T14:02:17;23.80;92.60
37518;DHT22;23366;52.498;13.446;2022-09-09T14:04:44;23.70;92.20
37518;DHT22;23366;52.498;13.446;2022-09-09T14:07:12;23.70;92.60
37518;DHT22;23366;52.498;13.446;2022-09-09T14:10:01;23.60;92.90
37518;DHT22;23366;52.498;13.446;2022-09-09T14:12:52;23.60;92.90
37518;DHT22;23366;52.498;13.446;2022-09-09T14:15:26;23.60;93.10
37518;DHT22;23366;52.498;13.446;2022-09-09T14:17:59;23.50;93.30
37518;DHT22;23366;52.498;13.446;2022-09-09T14:20:33;23.40;93.50
37518;DHT22;23366;52.498;13.446;2022-09-09T14:23:10;23.40;95.90
37518;DHT22;23366;52.498;13.446;2022-09-09T14:25:43;23.40;97.00
37518;DHT22;23366;52.498;13.446;2022-09-09T14:28:10;23.50;96.60
37518;DHT22;23366;52.498;13.446;2022-09-09T14:30:38;23.50;96.20
37518;DHT22;23366;52.498;13.446;2022-09-09T14:33:05;23.50;95.60
37518;DHT22;23366;52.498;13.446;2022-09-09T14:35:30;23.60;97.30
37518;DHT22;23366;52.498;13.446;2022-09-09T14:37:56;23.60;95.00
37518;DHT22;23366;52.498;13.446;2022-09-09T14:40:22;23.70;94.80
37518;DHT22;23366;52.498;13.446;2022-09-09T14:42:47;23.80;95.90
37518;DHT22;23366;52.498;13.446;2022-09-09T14:45:13;23.80;94.80
37518;DHT22;23366;52.498;13.446;2022-09-09T14:47:38;23.80;94.80
37518;DHT22;23366;52.498;13.446;2022-09-09T14:50:05;23.80;95.10
37518;DHT22;23366;52.498;13.446;2022-09-09T14:52:31;23.80;95.10
37518;DHT22;23366;52.498;13.446;2022-09-09T14:54:56;23.70;95.50
37518;DHT22;23366;52.498;13.446;2022-09-09T14:57:22;23.60;95.20
37518;DHT22;23366;52.498;13.446;2022-09-09T14:59:48;23.40;95.40
37518;DHT22;23366;52.498;13.446;2022-09-09T15:02:16;23.40;95.40
37518;DHT22;23366;52.498;13.446;2022-09-09T15:04:41;23.20;95.80
37518;DHT22;23366;52.498;13.446;2022-09-09T15:07:07;23.10;95.10
37518;DHT22;23366;52.498;13.446;2022-09-09T15:09:33;23.10;95.10
37518;DHT22;23366;52.498;13.446;2022-09-09T15:11:58;23.00;95.30
37518;DHT22;23366;52.498;13.446;2022-09-09T15:14:24;23.00;95.10
37518;DHT22;23366;52.498;13.446;2022-09-09T15:16:51;23.00;94.70
37518;DHT22;23366;52.498;13.446;2022-09-09T15:19:16;23.00;95.60
37518;DHT22;23366;52.498;13.446;2022-09-09T15:21:42;22.90;95.10
37518;DHT22;23366;52.498;13.446;2022-09-09T15:24:07;22.90;93.80
37518;DHT22;23366;52.498;13.446;2022-09-09T15:26:34;23.00;93.50
37518;DHT22;23366;52.498;13.446;2022-09-09T15:29:00;23.00;92.50
37518;DHT22;23366;52.498;13.446;2022-09-09T15:31:30;22.90;92.20
37518;DHT22;23366;52.498;13.446;2022-09-09T15:34:07;23.00;92.40
37518;DHT22;23366;52.498;13.446;2022-09-09T15:36:34;23.00;91.00
37518;DHT22;23366;52.498;13.446;2022-09-09T15:39:01;23.10;90.20
37518;DHT22;23366;52.498;13.446;2022-09-09T15:41:28;23.10;90.10
37518;DHT22;23366;52.498;13.446;2022-09-09T15:43:55;23.00;90.00
37518;DHT22;23366;52.498;13.446;2022-09-09T15:46:31;23.00;90.30
37518;DHT22;23366;52.498;13.446;2022-09-09T15:49:18;22.90;90.60
37518;DHT22;23366;52.498;13.446;2022-09-09T15:51:47;22.80;90.70
37518;DHT22;23366;52.498;13.446;2022-09-09T15:54:20;22.70;91.00
37518;DHT22;23366;52.498;13.446;2022-09-09T15:56:51;22.60;91.20
37518;DHT22;23366;52.498;13.446;2022-09-09T15:59:17;22.50;91.70
37518;DHT22;23366;52.498;13.446;2022-09-09T16:01:43;22.40;92.30
37518;DHT22;23366;52.498;13.446;2022-09-09T16:04:09;22.40;92.80
37518;DHT22;23366;52.498;13.446;2022-09-09T16:06:35;22.30;92.70
37518;DHT22;23366;52.498;13.446;2022-09-09T16:09:03;22.30;92.70
37518;DHT22;23366;52.498;13.446;2022-09-09T16:11:32;22.30;93.10
37518;DHT22;23366;52.498;13.446;2022-09-09T16:13:58;22.30;93.30
37518;DHT22;23366;52.498;13.446;2022-09-09T16:16:27;22.30;93.20
37518;DHT22;23366;52.498;13.446;2022-09-09T16:19:13;22.20;93.40
37518;DHT22;23366;52.498;13.446;2022-09-09T16:21:44;22.20;93.40
37518;DHT22;23366;52.498;13.446;2022-09-09T16:24:12;22.10;93.80
37518;DHT22;23366;52.498;13.446;2022-09-09T16:26:41;22.00;93.50
37518;DHT22;23366;52.498;13.446;2022-09-09T16:29:11;22.00;93.80
37518;DHT22;23366;52.498;13.446;2022-09-09T16:31:37;21.90;94.30
37518;DHT22;23366;52.498;13.446;2022-09-09T16:34:03;21.80;94.40
37518;DHT22;23366;52.498;13.446;2022-09-09T16:36:30;21.80;94.70
37518;DHT22;23366;52.498;13.446;2022-09-09T16:38:58;21.70;94.80
37518;DHT22;23366;52.498;13.446;2022-09-09T16:41:25;21.60;95.00
37518;DHT22;23366;52.498;13.446;2022-09-09T16:43:59;21.60;95.10
37518;DHT22;23366;52.498;13.446;2022-09-09T16:46:25;21.50;95.40
37518;DHT22;23366;52.498;13.446;2022-09-09T16:48:52;21.50;95.60
37518;DHT22;23366;52.498;13.446;2022-09-09T16:51:25;21.40;95.70
37518;DHT22;23366;52.498;13.446;2022-09-09T16:53:52;21.40;96.00
37518;DHT22;23366;52.498;13.446;2022-09-09T16:56:20;21.30;96.40
37518;DHT22;23366;52.498;13.446;2022-09-09T16:58:57;21.10;97.60